Time;durP1;ratioP1;P1;durP2;ratioP2;P2;SDS_P1;SDS_P2;PMS_P1;PMS_P2;Temp;Humidity;BMP_temperature;BMP_pressure;BME280_temperature;BME280_humidity;BME280_pressure;Samples;Min_cycle;Max_cycle;Signal;HPM_P1;HPM_P2
2022/09/28 00:01:54;;;;;;;1.65;1.00;;;;;;;;;;5083669;28;20388;-69
2022/09/28 00:04:20;;;;;;;2.75;1.10;;;;;;;;;;5083854;28;20538;-69
2022/09/28 00:06:48;;;;;;;2.15;0.80;;;;;;;;;;5083364;28;20396;-70
2022/09/28 00:09:14;;;;;;;1.27;1.20;;;;;;;;;;5083647;28;20197;-70
2022/09/28 00:11:42;;;;;;;1.50;1.10;;;;;;;;;;5083466;28;20227;-70
2022/09/28 00:14:09;;;;;;;1.35;1.15;;;;;;;;;;5083256;28;20365;-70
2022/09/28 00:16:37;;;;;;;1.40;1.40;;;;;;;;;;5083400;28;20515;-70
2022/09/28 00:19:05;;;;;;;2.60;1.10;;;;;;;;;;5083211;28;20196;-70
2022/09/28 00:21:32;;;;;;;1.30;1.30;;;;;;;;;;5083473;28;20242;-70
2022/09/28 00:24:13;;;;;;;2.28;1.60;;;;;;;;;;5083234;28;20279;-70
2022/09/28 00:26:41;;;;;;;1.20;1.20;;;;;;;;;;5083221;28;20204;-68
2022/09/28 00:29:08;;;;;;;2.60;1.50;;;;;;;;;;5083166;28;20196;-70
2022/09/28 00:31:35;;;;;;;1.35;1.02;;;;;;;;;;5083012;28;20211;-70
2022/09/28 00:34:03;;;;;;;1.33;1.33;;;;;;;;;;5083125;28;20200;-70
2022/09/28 00:36:31;;;;;;;2.58;1.48;;;;;;;;;;5083003;28;20220;-70
2022/09/28 00:38:58;;;;;;;1.20;1.20;;;;;;;;;;5083063;28;20196;-70
2022/09/28 00:41:26;;;;;;;1.05;1.05;;;;;;;;;;5082875;28;20211;-70
2022/09/28 00:43:53;;;;;;;2.03;1.52;;;;;;;;;;5082553;28;20196;-70
2022/09/28 00:46:20;;;;;;;3.40;1.58;;;;;;;;;;5083252;28;20193;-70
2022/09/28 00:48:50;;;;;;;1.00;1.00;;;;;;;;;;5082956;28;20204;-69
2022/09/28 00:51:16;;;;;;;1.98;1.27;;;;;;;;;;5082726;28;20388;-68
2022/09/28 00:53:43;;;;;;;1.23;1.20;;;;;;;;;;5082424;28;20200;-68
2022/09/28 00:56:11;;;;;;;1.30;1.20;;;;;;;;;;5082531;28;20220;-68
2022/09/28 00:58:41;;;;;;;2.08;1.30;;;;;;;;;;5082398;28;20200;-68
2022/09/28 01:01:07;;;;;;;1.42;1.30;;;;;;;;;;5082788;28;20508;-68
2022/09/28 01:03:33;;;;;;;1.80;1.17;;;;;;;;;;5082490;28;20221;-67
2022/09/28 01:06:02;;;;;;;0.95;0.95;;;;;;;;;;5082391;28;20227;-68
2022/09/28 01:08:29;;;;;;;1.25;1.00;;;;;;;;;;5082367;28;20222;-68
2022/09/28 01:10:55;;;;;;;1.58;1.05;;;;;;;;;;5082264;28;20519;-69
2022/09/28 01:13:23;;;;;;;1.20;1.20;;;;;;;;;;5082034;28;20203;-67
2022/09/28 01:15:56;;;;;;;2.60;0.90;;;;;;;;;;5082337;28;20619;-67
2022/09/28 01:18:27;;;;;;;1.00;0.90;;;;;;;;;;5082360;28;20289;-69
2022/09/28 01:20:59;;;;;;;0.60;0.60;;;;;;;;;;5082347;28;20204;-69
2022/09/28 01:23:44;;;;;;;0.70;0.70;;;;;;;;;;5081873;28;20196;-69
2022/09/28 01:26:23;;;;;;;0.93;0.85;;;;;;;;;;5082262;28;20271;-70
2022/09/28 01:28:52;;;;;;;2.22;0.93;;;;;;;;;;5081516;28;20196;-69
2022/09/28 01:31:20;;;;;;;0.70;0.70;;;;;;;;;;5082417;28;20397;-70
2022/09/28 01:33:48;;;;;;;0.75;0.75;;;;;;;;;;5081605;28;20196;-69
2022/09/28 01:36:18;;;;;;;1.85;0.70;;;;;;;;;;5081474;28;20216;-69
2022/09/28 01:38:46;;;;;;;1.23;0.90;;;;;;;;;;5081849;28;20208;-69
2022/09/28 01:41:16;;;;;;;1.27;0.70;;;;;;;;;;5082160;28;20196;-69
2022/09/28 01:43:46;;;;;;;1.05;0.77;;;;;;;;;;5081583;28;20242;-70
2022/09/28 01:46:14;;;;;;;1.05;0.90;;;;;;;;;;5081977;28;20193;-68
2022/09/28 01:48:42;;;;;;;0.82;0.80;;;;;;;;;;5081970;28;20387;-68
2022/09/28 01:51:12;;;;;;;0.85;0.85;;;;;;;;;;5082133;28;20200;-68
2022/09/28 01:53:40;;;;;;;1.40;0.73;;;;;;;;;;5081683;28;20200;-68
2022/09/28 01:56:09;;;;;;;1.13;0.80;;;;;;;;;;5081776;28;20621;-68
2022/09/28 01:58:37;;;;;;;2.90;0.90;;;;;;;;;;5081701;28;20404;-68
2022/09/28 02:01:08;;;;;;;0.95;0.80;;;;;;;;;;5082173;28;20204;-68
2022/09/28 02:03:37;;;;;;;6.32;1.27;;;;;;;;;;5081573;28;20196;-68
2022/09/28 02:06:06;;;;;;;0.70;0.70;;;;;;;;;;5081471;28;20219;-68
2022/09/28 02:08:34;;;;;;;0.82;0.80;;;;;;;;;;5081578;28;20242;-69
2022/09/28 02:11:09;;;;;;;0.93;0.90;;;;;;;;;;5081477;28;20196;-69
2022/09/28 02:13:36;;;;;;;1.35;0.90;;;;;;;;;;5081762;28;20488;-69
2022/09/28 02:16:04;;;;;;;1.90;0.88;;;;;;;;;;5081600;28;20224;-69
2022/09/28 02:18:32;;;;;;;1.65;0.65;;;;;;;;;;5081498;28;20200;-69
2022/09/28 02:21:00;;;;;;;1.10;0.90;;;;;;;;;;5081574;28;20504;-69
2022/09/28 02:23:28;;;;;;;2.22;1.02;;;;;;;;;;5081221;28;20200;-70
2022/09/28 02:26:00;;;;;;;1.17;0.95;;;;;;;;;;5081399;28;20523;-70
2022/09/28 02:28:27;;;;;;;3.25;0.73;;;;;;;;;;5081885;28;20284;-70
2022/09/28 02:30:53;;;;;;;0.80;0.80;;;;;;;;;;5081589;28;20203;-70
2022/09/28 02:33:21;;;;;;;1.33;0.85;;;;;;;;;;5081338;28;20500;-70
2022/09/28 02:35:49;;;;;;;1.95;0.90;;;;;;;;;;5081442;28;20288;-70
2022/09/28 02:38:15;;;;;;;1.13;0.88;;;;;;;;;;5081369;28;20543;-70
2022/09/28 02:40:43;;;;;;;1.80;1.23;;;;;;;;;;5081574;28;20200;-71
2022/09/28 02:43:14;;;;;;;2.35;1.10;;;;;;;;;;5081383;28;20512;-66
2022/09/28 02:45:50;;;;;;;3.50;0.90;;;;;;;;;;5081203;28;20200;-66
2022/09/28 02:48:24;;;;;;;2.17;0.80;;;;;;;;;;5082829;28;20200;-68
2022/09/28 02:50:58;;;;;;;2.75;1.00;;;;;;;;;;5084964;28;20203;-67
2022/09/28 02:53:31;;;;;;;2.65;0.95;;;;;;;;;;5084852;28;20267;-67
2022/09/28 02:56:04;;;;;;;2.92;0.88;;;;;;;;;;5085349;28;20523;-69
2022/09/28 02:58:35;;;;;;;2.00;1.65;;;;;;;;;;5084936;28;20500;-69
2022/09/28 03:01:07;;;;;;;9.75;4.65;;;;;;;;;;5084624;28;20234;-69
2022/09/28 03:03:40;;;;;;;4.45;2.38;;;;;;;;;;5084620;28;20197;-69
2022/09/28 03:06:11;;;;;;;3.10;0.80;;;;;;;;;;5084766;28;20446;-69
2022/09/28 03:08:39;;;;;;;3.28;1.27;;;;;;;;;;5084757;28;20204;-69
2022/09/28 03:11:07;;;;;;;3.38;0.95;;;;;;;;;;5084695;28;20197;-69
2022/09/28 03:13:34;;;;;;;2.22;0.68;;;;;;;;;;5084300;28;20243;-69
2022/09/28 03:16:10;;;;;;;2.40;0.95;;;;;;;;;;5084722;28;20251;-69
2022/09/28 03:18:37;;;;;;;3.40;1.10;;;;;;;;;;5084687;28;20196;-69
2022/09/28 03:21:05;;;;;;;1.38;0.60;;;;;;;;;;5084543;28;20203;-70
2022/09/28 03:23:33;;;;;;;4.95;1.20;;;;;;;;;;5084253;28;20193;-70
2022/09/28 03:26:00;;;;;;;1.70;1.00;;;;;;;;;;5084763;28;20212;-70
2022/09/28 03:28:27;;;;;;;3.10;0.93;;;;;;;;;;5084247;28;20196;-70
2022/09/28 03:30:53;;;;;;;3.58;0.80;;;;;;;;;;5084251;28;20203;-70
2022/09/28 03:33:20;;;;;;;7.07;1.10;;;;;;;;;;5084243;28;20200;-70
2022/09/28 03:35:47;;;;;;;1.73;1.02;;;;;;;;;;5084282;28;20596;-69
2022/09/28 03:38:14;;;;;;;5.78;1.02;;;;;;;;;;5084192;28;20508;-69
2022/09/28 03:40:41;;;;;;;3.38;0.98;;;;;;;;;;5083951;28;20195;-69
2022/09/28 03:43:08;;;;;;;4.00;1.10;;;;;;;;;;5083712;28;20197;-69
2022/09/28 03:45:34;;;;;;;1.08;0.80;;;;;;;;;;5084091;28;20218;-69
2022/09/28 03:48:00;;;;;;;6.05;1.20;;;;;;;;;;5084066;28;20511;-69
2022/09/28 03:50:27;;;;;;;3.20;1.20;;;;;;;;;;5083942;28;20203;-69
2022/09/28 03:52:53;;;;;;;6.40;1.02;;;;;;;;;;5083609;28;20196;-69
2022/09/28 03:55:19;;;;;;;1.27;0.73;;;;;;;;;;5083665;28;20511;-69
2022/09/28 03:57:52;;;;;;;3.63;1.08;;;;;;;;;;5083922;28;20430;-69
2022/09/28 04:00:19;;;;;;;2.85;0.95;;;;;;;;;;5083210;28;20196;-69
2022/09/28 04:02:45;;;;;;;0.73;0.65;;;;;;;;;;5083478;28;20197;-69
2022/09/28 04:05:11;;;;;;;1.65;0.93;;;;;;;;;;5083636;28;20220;-69
2022/09/28 04:07:37;;;;;;;5.72;1.23;;;;;;;;;;5083398;28;20192;-69
2022/09/28 04:10:04;;;;;;;1.95;1.00;;;;;;;;;;5083304;28;20226;-69
2022/09/28 04:12:30;;;;;;;1.50;1.00;;;;;;;;;;5083307;28;20208;-69
2022/09/28 04:15:00;;;;;;;2.95;0.80;;;;;;;;;;5083249;28;20212;-70
2022/09/28 04:17:27;;;;;;;0.95;0.60;;;;;;;;;;5083541;28;20562;-69
2022/09/28 04:19:53;;;;;;;2.78;0.90;;;;;;;;;;5083348;28;20439;-69
2022/09/28 04:22:19;;;;;;;2.85;0.80;;;;;;;;;;5083014;28;20196;-69
2022/09/28 04:24:46;;;;;;;2.65;0.80;;;;;;;;;;5083184;28;20196;-69
2022/09/28 04:29:56;;;;;;;6.13;2.70;;;;;;;;;;5083160;28;20322;-69
2022/09/28 04:32:23;;;;;;;6.22;3.42;;;;;;;;;;5082770;28;20258;-70
2022/09/28 04:34:50;;;;;;;1.45;1.35;;;;;;;;;;5083000;28;20196;-70
2022/09/28 04:37:16;;;;;;;5.13;3.40;;;;;;;;;;5082951;28;20220;-70
2022/09/28 04:39:43;;;;;;;2.80;0.93;;;;;;;;;;5083140;28;20204;-70
2022/09/28 04:42:09;;;;;;;1.02;0.82;;;;;;;;;;5082712;28;20203;-70
2022/09/28 04:44:36;;;;;;;3.05;1.02;;;;;;;;;;5082779;28;20204;-70
2022/09/28 04:47:02;;;;;;;1.30;1.20;;;;;;;;;;5082736;28;20196;-70
2022/09/28 04:49:29;;;;;;;2.85;0.93;;;;;;;;;;5082565;28;20522;-70
2022/09/28 04:51:56;;;;;;;1.27;0.90;;;;;;;;;;5082961;28;20208;-70
2022/09/28 04:54:22;;;;;;;0.60;0.60;;;;;;;;;;5082695;28;20196;-70
2022/09/28 04:56:51;;;;;;;1.83;1.02;;;;;;;;;;5082504;28;20545;-70
2022/09/28 04:59:17;;;;;;;0.77;0.73;;;;;;;;;;5082527;28;20200;-70
2022/09/28 05:01:43;;;;;;;2.65;1.25;;;;;;;;;;5082430;28;20216;-70
2022/09/28 05:04:10;;;;;;;2.90;1.88;;;;;;;;;;5082131;28;20212;-70
2022/09/28 05:06:37;;;;;;;1.80;1.40;;;;;;;;;;5082458;28;20219;-69
2022/09/28 05:09:04;;;;;;;1.40;1.30;;;;;;;;;;5082690;28;20223;-69
2022/09/28 05:11:30;;;;;;;1.00;0.95;;;;;;;;;;5081229;28;20515;-69
2022/09/28 05:13:56;;;;;;;4.68;1.10;;;;;;;;;;5082068;28;20218;-69
2022/09/28 05:16:24;;;;;;;2.05;1.30;;;;;;;;;;5082103;28;20398;-69
2022/09/28 05:18:54;;;;;;;2.38;0.90;;;;;;;;;;5082410;28;20196;-69
2022/09/28 05:21:20;;;;;;;0.90;0.90;;;;;;;;;;5082525;28;20196;-69
2022/09/28 05:23:48;;;;;;;2.67;1.20;;;;;;;;;;5082154;28;20197;-70
2022/09/28 05:26:14;;;;;;;1.08;1.00;;;;;;;;;;5082120;28;20204;-69
2022/09/28 05:28:40;;;;;;;1.55;1.00;;;;;;;;;;5082100;28;20197;-69
2022/09/28 05:31:06;;;;;;;4.03;0.70;;;;;;;;;;5081775;28;20197;-65
2022/09/28 05:33:33;;;;;;;3.42;0.93;;;;;;;;;;5082050;28;20204;-65
2022/09/28 05:35:59;;;;;;;2.45;0.93;;;;;;;;;;5082191;28;20196;-65
2022/09/28 05:38:26;;;;;;;1.67;1.20;;;;;;;;;;5081447;28;20197;-65
2022/09/28 05:40:53;;;;;;;1.67;1.00;;;;;;;;;;5082087;28;20208;-65
2022/09/28 05:43:20;;;;;;;1.00;0.80;;;;;;;;;;5081676;28;20199;-65
2022/09/28 05:45:46;;;;;;;1.45;1.10;;;;;;;;;;5072479;28;20258;-64
2022/09/28 05:48:12;;;;;;;3.92;0.93;;;;;;;;;;5066673;28;20511;-64
2022/09/28 05:50:39;;;;;;;4.70;1.05;;;;;;;;;;5074560;28;20208;-64
2022/09/28 05:53:06;;;;;;;1.35;0.73;;;;;;;;;;5071117;28;20472;-63
2022/09/28 05:55:33;;;;;;;2.17;1.30;;;;;;;;;;5070640;28;20495;-64
2022/09/28 05:58:00;;;;;;;2.25;1.38;;;;;;;;;;5073900;28;20233;-64
2022/09/28 06:00:27;;;;;;;2.15;1.30;;;;;;;;;;5070553;28;20771;-64
2022/09/28 06:02:57;;;;;;;1.58;1.02;;;;;;;;;;5077056;28;20212;-64
2022/09/28 06:05:23;;;;;;;1.52;1.15;;;;;;;;;;5074138;28;20232;-63
2022/09/28 06:07:50;;;;;;;1.80;1.10;;;;;;;;;;5075072;28;20472;-63
2022/09/28 06:10:16;;;;;;;1.55;0.95;;;;;;;;;;5066840;28;20212;-64
2022/09/28 06:12:43;;;;;;;1.20;0.80;;;;;;;;;;5072644;28;20262;-64
2022/09/28 06:15:12;;;;;;;1.95;0.80;;;;;;;;;;5074017;28;20381;-64
2022/09/28 06:17:38;;;;;;;2.72;1.00;;;;;;;;;;5073724;28;20443;-63
2022/09/28 06:20:05;;;;;;;2.30;1.00;;;;;;;;;;5074037;28;20585;-63
2022/09/28 06:22:31;;;;;;;3.38;0.90;;;;;;;;;;5074324;28;20213;-64
2022/09/28 06:24:57;;;;;;;0.90;0.82;;;;;;;;;;5077601;28;20250;-64
2022/09/28 06:27:24;;;;;;;2.72;0.90;;;;;;;;;;5077560;28;20208;-64
2022/09/28 06:29:50;;;;;;;0.98;0.90;;;;;;;;;;5077524;28;20235;-64
2022/09/28 06:32:18;;;;;;;0.90;0.88;;;;;;;;;;5077420;28;20971;-63
2022/09/28 06:34:45;;;;;;;4.35;1.08;;;;;;;;;;5078169;28;20212;-64
2022/09/28 06:37:11;;;;;;;2.45;1.00;;;;;;;;;;5077638;28;20581;-64
2022/09/28 06:39:37;;;;;;;1.67;1.52;;;;;;;;;;5076803;28;20204;-64
2022/09/28 06:42:03;;;;;;;1.77;1.00;;;;;;;;;;5077065;28;20212;-64
2022/09/28 06:44:31;;;;;;;1.20;1.02;;;;;;;;;;5076539;28;20212;-64
2022/09/28 06:46:57;;;;;;;3.25;1.10;;;;;;;;;;5077305;28;20215;-64
2022/09/28 06:49:28;;;;;;;2.13;0.98;;;;;;;;;;5077475;28;20218;-64
2022/09/28 06:51:54;;;;;;;2.92;1.08;;;;;;;;;;5073466;28;20216;-64
2022/09/28 06:54:24;;;;;;;2.83;1.13;;;;;;;;;;5077270;28;20212;-63
2022/09/28 06:56:50;;;;;;;1.33;1.23;;;;;;;;;;5076585;28;20578;-64
2022/09/28 06:59:17;;;;;;;1.38;1.20;;;;;;;;;;5077077;28;20519;-65
2022/09/28 07:01:43;;;;;;;1.67;1.58;;;;;;;;;;5077763;28;20532;-64
2022/09/28 07:04:09;;;;;;;2.17;1.38;;;;;;;;;;5076684;28;20592;-65
2022/09/28 07:06:37;;;;;;;3.25;1.50;;;;;;;;;;5077118;28;20248;-64
2022/09/28 07:09:05;;;;;;;4.60;1.52;;;;;;;;;;5076970;28;20235;-64
2022/09/28 07:11:38;;;;;;;3.42;1.35;;;;;;;;;;5076566;28;20212;-64
2022/09/28 07:14:04;;;;;;;2.20;1.70;;;;;;;;;;5076063;28;20224;-64
2022/09/28 07:16:30;;;;;;;2.03;1.30;;;;;;;;;;5077127;28;20254;-64
2022/09/28 07:18:57;;;;;;;2.25;1.30;;;;;;;;;;5078955;28;20559;-65
2022/09/28 07:21:23;;;;;;;2.55;1.65;;;;;;;;;;5077307;28;20242;-64
2022/09/28 07:23:52;;;;;;;1.48;1.40;;;;;;;;;;5075596;28;20465;-64
2022/09/28 07:26:18;;;;;;;2.53;1.73;;;;;;;;;;5076003;28;20220;-63
2022/09/28 07:28:45;;;;;;;3.85;1.88;;;;;;;;;;5076989;28;20238;-65
2022/09/28 07:31:11;;;;;;;3.45;1.90;;;;;;;;;;5076439;28;20219;-64
2022/09/28 07:33:37;;;;;;;6.53;1.88;;;;;;;;;;5076083;28;20261;-64
2022/09/28 07:36:05;;;;;;;1.77;1.67;;;;;;;;;;5075981;28;20220;-64
2022/09/28 07:38:31;;;;;;;3.03;2.28;;;;;;;;;;5076489;28;20252;-64
2022/09/28 07:41:11;;;;;;;3.95;2.80;;;;;;;;;;5076785;28;20213;-64
2022/09/28 07:43:38;;;;;;;2.50;2.20;;;;;;;;;;5076265;28;20390;-64
2022/09/28 07:46:10;;;;;;;4.20;2.50;;;;;;;;;;5076300;28;20212;-64
2022/09/28 07:48:37;;;;;;;2.08;1.98;;;;;;;;;;5075875;28;20404;-64
2022/09/28 07:51:04;;;;;;;7.53;2.38;;;;;;;;;;5074543;28;20213;-64
2022/09/28 07:53:30;;;;;;;5.57;2.53;;;;;;;;;;5076255;28;20405;-64
2022/09/28 07:56:03;;;;;;;4.78;1.60;;;;;;;;;;5075763;28;20205;-64
2022/09/28 07:58:32;;;;;;;2.83;1.77;;;;;;;;;;5076123;28;20551;-64
2022/09/28 08:00:59;;;;;;;2.70;2.33;;;;;;;;;;5076651;28;20235;-64
2022/09/28 08:03:26;;;;;;;5.70;2.10;;;;;;;;;;5076183;28;20509;-64
2022/09/28 08:05:57;;;;;;;3.28;1.85;;;;;;;;;;5075854;28;20228;-64
2022/09/28 08:08:23;;;;;;;5.90;2.08;;;;;;;;;;5075840;28;20212;-64
2022/09/28 08:10:51;;;;;;;2.83;1.50;;;;;;;;;;5075696;28;20250;-64
2022/09/28 08:13:17;;;;;;;1.70;1.25;;;;;;;;;;5075620;28;20243;-64
2022/09/28 08:15:50;;;;;;;3.88;1.70;;;;;;;;;;5075178;28;20212;-64
2022/09/28 08:18:16;;;;;;;2.00;1.70;;;;;;;;;;5075379;28;20286;-64
2022/09/28 08:23:26;;;;;;;3.58;1.52;;;;;;;;;;5072396;28;20542;-63
2022/09/28 08:25:53;;;;;;;1.95;1.50;;;;;;;;;;5075658;28;20235;-64
2022/09/28 08:28:20;;;;;;;2.75;1.23;;;;;;;;;;5074541;28;20208;-64
2022/09/28 08:30:48;;;;;;;2.55;1.60;;;;;;;;;;5075670;28;20213;-64
2022/09/28 08:33:15;;;;;;;2.83;1.23;;;;;;;;;;5075433;28;20235;-64
2022/09/28 08:35:41;;;;;;;4.07;1.80;;;;;;;;;;5075054;28;20216;-63
2022/09/28 08:38:07;;;;;;;5.43;1.55;;;;;;;;;;5074472;28;20266;-64
2022/09/28 08:40:37;;;;;;;3.55;1.65;;;;;;;;;;5075542;28;20563;-64
2022/09/28 08:43:06;;;;;;;4.85;1.98;;;;;;;;;;5076114;28;20392;-64
2022/09/28 08:45:33;;;;;;;1.77;1.52;;;;;;;;;;5075467;28;20250;-63
2022/09/28 08:50:48;;;;;;;5.07;1.90;;;;;;;;;;5074798;28;20219;-64
2022/09/28 08:53:20;;;;;;;3.50;1.63;;;;;;;;;;5074957;28;20219;-64
2022/09/28 08:55:46;;;;;;;4.78;2.00;;;;;;;;;;5074292;28;20253;-65
2022/09/28 08:58:14;;;;;;;2.05;1.60;;;;;;;;;;5074425;28;20509;-64
2022/09/28 09:00:45;;;;;;;4.88;1.70;;;;;;;;;;5074445;28;20473;-64
2022/09/28 09:03:13;;;;;;;5.20;1.70;;;;;;;;;;5075304;28;20535;-63
2022/09/28 09:05:44;;;;;;;2.97;1.60;;;;;;;;;;5074729;28;20224;-64
2022/09/28 09:08:19;;;;;;;6.10;1.95;;;;;;;;;;5074363;28;20208;-64
2022/09/28 09:10:50;;;;;;;3.55;2.13;;;;;;;;;;5074610;28;20566;-64
2022/09/28 09:13:25;;;;;;;7.68;1.95;;;;;;;;;;5074952;28;20211;-65
2022/09/28 09:15:55;;;;;;;5.20;1.60;;;;;;;;;;5074199;28;20212;-62
2022/09/28 09:18:30;;;;;;;4.22;1.80;;;;;;;;;;5074211;28;20229;-64
2022/09/28 09:20:57;;;;;;;4.05;2.00;;;;;;;;;;5074811;28;20211;-63
2022/09/28 09:23:30;;;;;;;3.30;1.70;;;;;;;;;;5074849;28;20219;-63
2022/09/28 09:25:58;;;;;;;1.70;1.52;;;;;;;;;;5074914;28;20212;-64
2022/09/28 09:28:43;;;;;;;2.20;1.60;;;;;;;;;;5073286;28;20209;-64
2022/09/28 09:31:15;;;;;;;4.40;1.63;;;;;;;;;;5074663;28;20208;-63
2022/09/28 09:33:50;;;;;;;4.13;1.70;;;;;;;;;;5074863;28;20436;-64
2022/09/28 09:36:33;;;;;;;3.75;1.70;;;;;;;;;;5075217;28;20370;-65
2022/09/28 09:39:07;;;;;;;2.55;1.77;;;;;;;;;;5071004;28;20430;-65
2022/09/28 09:41:40;;;;;;;5.18;1.35;;;;;;;;;;5074560;28;20337;-65
2022/09/28 09:44:14;;;;;;;4.18;1.70;;;;;;;;;;5074938;28;20274;-65
2022/09/28 09:46:43;;;;;;;3.30;1.77;;;;;;;;;;5074750;28;20440;-65
2022/09/28 09:49:15;;;;;;;2.50;1.23;;;;;;;;;;5074150;28;20290;-63
2022/09/28 09:51:44;;;;;;;3.40;1.25;;;;;;;;;;5074894;28;20212;-64
2022/09/28 09:54:15;;;;;;;2.80;1.10;;;;;;;;;;5074747;28;20216;-63
2022/09/28 09:56:45;;;;;;;2.80;1.35;;;;;;;;;;5074509;28;20212;-66
2022/09/28 09:59:14;;;;;;;5.03;1.70;;;;;;;;;;5080241;28;20231;-63
2022/09/28 10:01:41;;;;;;;2.90;1.73;;;;;;;;;;5081012;28;20414;-63
2022/09/28 10:04:12;;;;;;;4.45;1.35;;;;;;;;;;5080078;28;20207;-62
2022/09/28 10:06:41;;;;;;;3.72;1.55;;;;;;;;;;5080946;28;20265;-62
2022/09/28 10:09:11;;;;;;;2.50;1.33;;;;;;;;;;5081188;28;20231;-62
2022/09/28 10:11:39;;;;;;;2.38;1.50;;;;;;;;;;5080647;28;20283;-63
2022/09/28 10:14:07;;;;;;;4.70;1.83;;;;;;;;;;5080409;28;20212;-63
2022/09/28 10:16:34;;;;;;;1.85;1.20;;;;;;;;;;5081069;28;20222;-63
2022/09/28 10:19:00;;;;;;;3.65;1.50;;;;;;;;;;5080545;28;20327;-63
2022/09/28 10:21:27;;;;;;;5.43;1.25;;;;;;;;;;5081121;28;20216;-63
2022/09/28 10:23:56;;;;;;;2.65;1.20;;;;;;;;;;5080321;28;20211;-63
2022/09/28 10:26:24;;;;;;;3.85;1.40;;;;;;;;;;5080398;28;20234;-63
2022/09/28 10:28:53;;;;;;;1.17;1.08;;;;;;;;;;5080493;28;20227;-63
2022/09/28 10:31:37;;;;;;;2.22;0.95;;;;;;;;;;5080090;28;20211;-64
2022/09/28 10:34:04;;;;;;;7.82;1.90;;;;;;;;;;5080037;28;20212;-63
2022/09/28 10:36:37;;;;;;;1.58;1.10;;;;;;;;;;5080449;28;20219;-63
2022/09/28 10:39:04;;;;;;;4.43;1.60;;;;;;;;;;5080548;28;20295;-63
2022/09/28 10:41:31;;;;;;;2.90;1.30;;;;;;;;;;5080787;28;20578;-63
2022/09/28 10:44:05;;;;;;;3.17;1.50;;;;;;;;;;5080570;28;20231;-64
2022/09/28 10:46:32;;;;;;;2.70;1.35;;;;;;;;;;5080946;28;20211;-64
2022/09/28 10:49:01;;;;;;;1.33;1.23;;;;;;;;;;5080118;28;20527;-63
2022/09/28 10:51:39;;;;;;;1.85;1.30;;;;;;;;;;5081170;28;20216;-63
2022/09/28 10:54:13;;;;;;;3.20;1.58;;;;;;;;;;5077497;28;20223;-63
2022/09/28 10:56:39;;;;;;;2.83;1.70;;;;;;;;;;5079970;28;20385;-63
2022/09/28 10:59:22;;;;;;;1.85;1.30;;;;;;;;;;5080380;28;20239;-63
2022/09/28 11:01:52;;;;;;;2.08;0.98;;;;;;;;;;5080838;28;20223;-63
2022/09/28 11:04:20;;;;;;;3.35;1.33;;;;;;;;;;5079660;28;20215;-64
2022/09/28 11:06:46;;;;;;;7.78;1.92;;;;;;;;;;5080198;28;20587;-64
2022/09/28 11:09:23;;;;;;;2.30;1.60;;;;;;;;;;5079173;28;20209;-63
2022/09/28 11:11:50;;;;;;;2.90;1.50;;;;;;;;;;5076955;28;20218;-63
2022/09/28 11:14:23;;;;;;;2.38;1.13;;;;;;;;;;5076660;28;20646;-64
2022/09/28 11:17:09;;;;;;;1.48;1.38;;;;;;;;;;5076673;28;20519;-60
2022/09/28 11:19:37;;;;;;;1.73;1.50;;;;;;;;;;5077169;28;20294;-62
2022/09/28 11:22:19;;;;;;;3.22;1.10;;;;;;;;;;5076143;28;20212;-60
2022/09/28 11:24:45;;;;;;;2.80;1.05;;;;;;;;;;5076373;28;20212;-61
2022/09/28 11:27:19;;;;;;;3.33;1.15;;;;;;;;;;5076063;28;20239;-61
2022/09/28 11:29:51;;;;;;;2.28;1.33;;;;;;;;;;5076455;28;20575;-62
2022/09/28 11:32:17;;;;;;;4.80;1.30;;;;;;;;;;5076378;28;20284;-62
2022/09/28 11:34:47;;;;;;;2.40;1.25;;;;;;;;;;5076527;28;20208;-62
2022/09/28 11:37:22;;;;;;;2.08;1.40;;;;;;;;;;5075806;28;20204;-62
2022/09/28 11:39:53;;;;;;;5.55;1.40;;;;;;;;;;5076904;28;20321;-62
2022/09/28 11:42:24;;;;;;;5.68;1.45;;;;;;;;;;5076731;28;20258;-62
2022/09/28 11:44:52;;;;;;;3.35;1.00;;;;;;;;;;5076822;28;20278;-62
2022/09/28 11:47:37;;;;;;;2.85;1.33;;;;;;;;;;5076169;28;20209;-62
2022/09/28 11:50:07;;;;;;;3.05;1.35;;;;;;;;;;5076680;28;20231;-66
2022/09/28 11:52:39;;;;;;;3.83;1.48;;;;;;;;;;5076091;28;20216;-65
2022/09/28 11:55:09;;;;;;;2.15;1.38;;;;;;;;;;5076119;28;20212;-64
2022/09/28 11:57:37;;;;;;;3.95;1.30;;;;;;;;;;5075494;28;20219;-63
2022/09/28 12:00:06;;;;;;;6.40;1.15;;;;;;;;;;5075837;28;20228;-63
2022/09/28 12:02:34;;;;;;;2.60;1.13;;;;;;;;;;5075973;28;20216;-63
2022/09/28 12:05:08;;;;;;;1.60;1.15;;;;;;;;;;5075775;28;20225;-63
2022/09/28 12:07:38;;;;;;;3.83;1.17;;;;;;;;;;5075755;28;20215;-63
2022/09/28 12:10:10;;;;;;;1.90;1.10;;;;;;;;;;5075479;28;20514;-64
2022/09/28 12:12:38;;;;;;;1.63;1.20;;;;;;;;;;5074785;28;20212;-63
2022/09/28 12:15:12;;;;;;;4.32;1.40;;;;;;;;;;5075595;28;20405;-63
2022/09/28 12:17:39;;;;;;;1.55;1.00;;;;;;;;;;5075124;28;20426;-64
2022/09/28 12:20:12;;;;;;;3.63;1.25;;;;;;;;;;5075100;28;20263;-64
2022/09/28 12:22:42;;;;;;;3.10;1.17;;;;;;;;;;5075997;28;20216;-64
2022/09/28 12:25:12;;;;;;;2.67;1.20;;;;;;;;;;5076033;28;20207;-62
2022/09/28 12:27:41;;;;;;;2.55;1.23;;;;;;;;;;5075101;28;20208;-61
2022/09/28 12:30:12;;;;;;;1.40;0.90;;;;;;;;;;5075548;28;20208;-61
2022/09/28 12:32:41;;;;;;;4.20;1.25;;;;;;;;;;5075698;28;20215;-62
2022/09/28 12:35:24;;;;;;;2.83;1.05;;;;;;;;;;5075938;28;20212;-62
2022/09/28 12:38:00;;;;;;;2.50;1.20;;;;;;;;;;5074841;28;20699;-60
2022/09/28 12:40:33;;;;;;;2.42;0.75;;;;;;;;;;5072140;28;20428;-64
2022/09/28 12:43:08;;;;;;;1.85;1.05;;;;;;;;;;5071989;28;20678;-63
2022/09/28 12:45:42;;;;;;;2.05;0.90;;;;;;;;;;5075896;28;20204;-59
2022/09/28 12:48:16;;;;;;;3.55;0.90;;;;;;;;;;5074981;28;20246;-59
2022/09/28 12:50:48;;;;;;;1.00;0.90;;;;;;;;;;5073594;28;20441;-60
2022/09/28 12:53:31;;;;;;;5.00;0.98;;;;;;;;;;5074446;28;20273;-59
2022/09/28 12:56:01;;;;;;;0.93;0.80;;;;;;;;;;5075138;28;20226;-60
2022/09/28 12:58:40;;;;;;;1.73;0.95;;;;;;;;;;5074438;28;20570;-60
2022/09/28 13:01:16;;;;;;;2.25;0.68;;;;;;;;;;5074481;28;20220;-60
2022/09/28 13:03:53;;;;;;;3.53;0.98;;;;;;;;;;5074690;28;20212;-60
2022/09/28 13:06:41;;;;;;;2.42;0.77;;;;;;;;;;5074865;28;20228;-60
2022/09/28 13:09:24;;;;;;;2.13;0.98;;;;;;;;;;5074594;28;20384;-59
2022/09/28 13:12:09;;;;;;;3.53;1.05;;;;;;;;;;5074591;28;20212;-59
2022/09/28 13:14:53;;;;;;;2.13;0.85;;;;;;;;;;5074315;28;20520;-61
2022/09/28 13:17:25;;;;;;;2.75;1.00;;;;;;;;;;5073898;28;20376;-61
2022/09/28 13:19:55;;;;;;;1.30;0.90;;;;;;;;;;5074701;28;20240;-60
2022/09/28 13:22:27;;;;;;;1.85;1.00;;;;;;;;;;5074146;28;20550;-61
2022/09/28 13:24:54;;;;;;;3.13;0.73;;;;;;;;;;5074976;28;20204;-59
2022/09/28 13:27:24;;;;;;;1.80;0.90;;;;;;;;;;5074144;28;20243;-59
2022/09/28 13:29:52;;;;;;;2.35;0.80;;;;;;;;;;5073575;28;20208;-60
2022/09/28 13:32:19;;;;;;;0.93;0.90;;;;;;;;;;5073238;28;20208;-61
2022/09/28 13:34:48;;;;;;;3.33;0.98;;;;;;;;;;5074802;28;20219;-60
2022/09/28 13:37:20;;;;;;;3.72;0.90;;;;;;;;;;5073932;28;20219;-60
2022/09/28 13:39:50;;;;;;;1.80;0.90;;;;;;;;;;5074171;28;20436;-61
2022/09/28 13:42:24;;;;;;;1.73;0.75;;;;;;;;;;5074084;28;20698;-60
2022/09/28 13:45:09;;;;;;;2.15;1.02;;;;;;;;;;5074251;28;20232;-60
2022/09/28 13:47:42;;;;;;;1.77;0.80;;;;;;;;;;5073650;28;20219;-59
2022/09/28 13:50:18;;;;;;;0.70;0.70;;;;;;;;;;5073701;28;20208;-59
2022/09/28 13:52:45;;;;;;;2.00;0.70;;;;;;;;;;5074040;28;20539;-60
2022/09/28 13:55:22;;;;;;;2.13;0.68;;;;;;;;;;5073902;28;20279;-60
2022/09/28 13:57:51;;;;;;;0.90;0.63;;;;;;;;;;5073085;28;20208;-58
2022/09/28 14:00:20;;;;;;;0.60;0.60;;;;;;;;;;5074121;28;20224;-60
2022/09/28 14:02:49;;;;;;;1.02;0.70;;;;;;;;;;5073907;28;20212;-60
2022/09/28 14:05:45;;;;;;;1.67;0.70;;;;;;;;;;5073844;28;20228;-60
2022/09/28 14:08:23;;;;;;;2.15;0.80;;;;;;;;;;5074156;28;20262;-61
2022/09/28 14:10:50;;;;;;;2.30;0.60;;;;;;;;;;5075000;28;20536;-59
2022/09/28 14:13:35;;;;;;;0.82;0.60;;;;;;;;;;5073755;28;20688;-60
2022/09/28 14:16:17;;;;;;;0.70;0.70;;;;;;;;;;5073832;28;20462;-59
2022/09/28 14:18:44;;;;;;;2.97;0.77;;;;;;;;;;5073691;28;20235;-60
2022/09/28 14:21:25;;;;;;;4.32;0.95;;;;;;;;;;5074008;28;20219;-60
2022/09/28 14:24:00;;;;;;;2.38;0.73;;;;;;;;;;5073811;28;20273;-60
2022/09/28 14:26:45;;;;;;;3.35;0.68;;;;;;;;;;5073421;28;20318;-60
2022/09/28 14:29:19;;;;;;;3.47;0.68;;;;;;;;;;5073681;28;20218;-60
2022/09/28 14:31:45;;;;;;;4.25;0.70;;;;;;;;;;5074226;28;20266;-60
2022/09/28 14:34:23;;;;;;;1.40;0.80;;;;;;;;;;5073486;28;20200;-60
2022/09/28 14:42:22;;;;;;;1.08;0.82;;;;;;;;;;5072931;28;20230;-61
2022/09/28 14:45:07;;;;;;;1.83;1.10;;;;;;;;;;5075619;28;20531;-61
2022/09/28 14:47:34;;;;;;;1.52;0.70;;;;;;;;;;5073504;28;20528;-59
2022/09/28 14:50:01;;;;;;;0.85;0.60;;;;;;;;;;5077311;28;20208;-60
2022/09/28 14:52:45;;;;;;;1.38;0.70;;;;;;;;;;5077544;28;20266;-60
2022/09/28 14:55:13;;;;;;;1.60;0.73;;;;;;;;;;5077965;28;20258;-59
2022/09/28 14:57:41;;;;;;;3.55;0.93;;;;;;;;;;5076713;28;20447;-60
2022/09/28 15:00:09;;;;;;;1.80;0.75;;;;;;;;;;5077424;28;20232;-60
2022/09/28 15:02:37;;;;;;;1.50;0.73;;;;;;;;;;5076732;28;20204;-60
2022/09/28 15:05:10;;;;;;;1.60;0.73;;;;;;;;;;5077423;28;20224;-60
2022/09/28 15:07:46;;;;;;;2.47;0.90;;;;;;;;;;5075073;28;20212;-60
2022/09/28 15:10:21;;;;;;;1.17;0.77;;;;;;;;;;5070722;28;20208;-59
2022/09/28 15:12:48;;;;;;;1.52;0.80;;;;;;;;;;5073352;28;20391;-60